sensor_id;sensor_type;location;lat;lon;timestamp;P1;P2;P0
40371;PMS5003;28564;53.346;-6.554;2024-02-21T00:00:45;9;9;
40371;PMS5003;28564;53.346;-6.554;2024-02-21T00:03:12;11;9;
40371;PMS5003;28564;53.346;-6.554;2024-02-21T00:05:40;11;6;
40371;PMS5003;28564;53.346;-6.554;2024-02-21T00:08:07;10;7;
40371;PMS5003;28564;53.346;-6.554;2024-02-21T00:10:35;11;9;
40371;PMS5003;28564;53.346;-6.554;2024-02-21T00:13:02;10;7;
40371;PMS5003;28564;53.346;-6.554;2024-02-21T00:15:30;12;7;
40371;PMS5003;28564;53.346;-6.554;2024-02-21T00:17:57;7;6;
40371;PMS5003;28564;53.346;-6.554;2024-02-21T00:20:24;7;6;
40371;PMS5003;28564;53.346;-6.554;2024-02-21T00:22:51;4;3;
40371;PMS5003;28564;53.346;-6.554;2024-02-21T00:25:19;5;5;
40371;PMS5003;28564;53.346;-6.554;2024-02-21T00:27:47;7;4;
40371;PMS5003;28564;53.346;-6.554;2024-02-21T00:30:14;4;3;
40371;PMS5003;28564;53.346;-6.554;2024-02-21T00:32:41;5;4;
40371;PMS5003;28564;53.346;-6.554;2024-02-21T00:35:08;2;2;
40371;PMS5003;28564;53.346;-6.554;2024-02-21T00:37:36;5;3;
40371;PMS5003;28564;53.346;-6.554;2024-02-21T00:40:03;3;2;
40371;PMS5003;28564;53.346;-6.554;2024-02-21T00:42:31;2;2;
40371;PMS5003;28564;53.346;-6.554;2024-02-21T00:44:58;4;3;
40371;PMS5003;28564;53.346;-6.554;2024-02-21T00:47:25;2;2;
40371;PMS5003;28564;53.346;-6.554;2024-02-21T00:49:52;2;2;
40371;PMS5003;28564;53.346;-6.554;2024-02-21T00:52:20;3;1;
40371;PMS5003;28564;53.346;-6.554;2024-02-21T00:54:47;2;2;
40371;PMS5003;28564;53.346;-6.554;2024-02-21T00:57:14;1;1;
40371;PMS5003;28564;53.346;-6.554;2024-02-21T00:59:41;1;1;
40371;PMS5003;28564;53.346;-6.554;2024-02-21T01:02:09;1;1;
40371;PMS5003;28564;53.346;-6.554;2024-02-21T01:04:36;2;1;
40371;PMS5003;28564;53.346;-6.554;2024-02-21T01:07:03;3;0;
40371;PMS5003;28564;53.346;-6.554;2024-02-21T01:09:30;1;1;
40371;PMS5003;28564;53.346;-6.554;2024-02-21T01:11:57;2;0;
40371;PMS5003;28564;53.346;-6.554;2024-02-21T01:14:25;1;1;
40371;PMS5003;28564;53.346;-6.554;2024-02-21T01:16:52;0;0;
40371;PMS5003;28564;53.346;-6.554;2024-02-21T01:19:19;1;1;
40371;PMS5003;28564;53.346;-6.554;2024-02-21T01:21:46;2;0;
40371;PMS5003;28564;53.346;-6.554;2024-02-21T01:24:13;1;1;
40371;PMS5003;28564;53.346;-6.554;2024-02-21T01:26:41;2;2;
40371;PMS5003;28564;53.346;-6.554;2024-02-21T01:29:07;1;0;
40371;PMS5003;28564;53.346;-6.554;2024-02-21T01:31:35;0;0;
40371;PMS5003;28564;53.346;-6.554;2024-02-21T01:34:02;1;1;
40371;PMS5003;28564;53.346;-6.554;2024-02-21T01:36:29;0;0;
40371;PMS5003;28564;53.346;-6.554;2024-02-21T01:38:56;0;0;
40371;PMS5003;28564;53.346;-6.554;2024-02-21T01:41:23;0;0;
40371;PMS5003;28564;53.346;-6.554;2024-02-21T01:43:50;0;0;
40371;PMS5003;28564;53.346;-6.554;2024-02-21T01:46:18;0;0;
40371;PMS5003;28564;53.346;-6.554;2024-02-21T01:48:45;1;0;
40371;PMS5003;28564;53.346;-6.554;2024-02-21T01:51:12;0;0;
40371;PMS5003;28564;53.346;-6.554;2024-02-21T01:53:42;1;1;
40371;PMS5003;28564;53.346;-6.554;2024-02-21T01:56:10;2;1;
40371;PMS5003;28564;53.346;-6.554;2024-02-21T01:58:39;3;1;
40371;PMS5003;28564;53.346;-6.554;2024-02-21T02:01:09;2;1;
40371;PMS5003;28564;53.346;-6.554;2024-02-21T02:03:36;0;0;
40371;PMS5003;28564;53.346;-6.554;2024-02-21T02:06:05;0;0;
40371;PMS5003;28564;53.346;-6.554;2024-02-21T02:08:32;0;0;
40371;PMS5003;28564;53.346;-6.554;2024-02-21T02:11:00;0;0;
40371;PMS5003;28564;53.346;-6.554;2024-02-21T02:13:29;0;0;
40371;PMS5003;28564;53.346;-6.554;2024-02-21T02:15:56;0;0;
40371;PMS5003;28564;53.346;-6.554;2024-02-21T02:18:23;0;0;
40371;PMS5003;28564;53.346;-6.554;2024-02-21T02:20:50;0;0;
40371;PMS5003;28564;53.346;-6.554;2024-02-21T02:23:19;1;1;
40371;PMS5003;28564;53.346;-6.554;2024-02-21T02:25:48;29;29;
40371;PMS5003;28564;53.346;-6.554;2024-02-21T02:28:16;57;57;
40371;PMS5003;28564;53.346;-6.554;2024-02-21T02:30:43;50;50;
40371;PMS5003;28564;53.346;-6.554;2024-02-21T02:33:11;30;30;
40371;PMS5003;28564;53.346;-6.554;2024-02-21T02:35:38;18;18;
40371;PMS5003;28564;53.346;-6.554;2024-02-21T02:38:06;8;8;
40371;PMS5003;28564;53.346;-6.554;2024-02-21T02:40:33;0;0;
40371;PMS5003;28564;53.346;-6.554;2024-02-21T02:43:00;0;0;
40371;PMS5003;28564;53.346;-6.554;2024-02-21T02:45:28;0;0;
40371;PMS5003;28564;53.346;-6.554;2024-02-21T02:47:55;0;0;
40371;PMS5003;28564;53.346;-6.554;2024-02-21T02:50:23;0;0;
40371;PMS5003;28564;53.346;-6.554;2024-02-21T02:52:50;0;0;
40371;PMS5003;28564;53.346;-6.554;2024-02-21T02:55:17;0;0;
40371;PMS5003;28564;53.346;-6.554;2024-02-21T02:57:44;0;0;
40371;PMS5003;28564;53.346;-6.554;2024-02-21T03:00:12;0;0;
40371;PMS5003;28564;53.346;-6.554;2024-02-21T03:02:40;0;0;
40371;PMS5003;28564;53.346;-6.554;2024-02-21T03:05:13;0;0;
40371;PMS5003;28564;53.346;-6.554;2024-02-21T03:07:41;2;1;
40371;PMS5003;28564;53.346;-6.554;2024-02-21T03:10:09;4;4;
40371;PMS5003;28564;53.346;-6.554;2024-02-21T03:12:37;5;5;
40371;PMS5003;28564;53.346;-6.554;2024-02-21T03:15:04;8;8;
40371;PMS5003;28564;53.346;-6.554;2024-02-21T03:17:32;26;26;
40371;PMS5003;28564;53.346;-6.554;2024-02-21T03:19:59;66;66;
40371;PMS5003;28564;53.346;-6.554;2024-02-21T03:22:27;60;60;
40371;PMS5003;28564;53.346;-6.554;2024-02-21T03:24:55;71;71;
40371;PMS5003;28564;53.346;-6.554;2024-02-21T03:27:22;53;51;
40371;PMS5003;28564;53.346;-6.554;2024-02-21T03:29:49;12;12;
40371;PMS5003;28564;53.346;-6.554;2024-02-21T03:32:16;28;28;
40371;PMS5003;28564;53.346;-6.554;2024-02-21T03:34:43;37;37;
40371;PMS5003;28564;53.346;-6.554;2024-02-21T03:37:10;5;5;
40371;PMS5003;28564;53.346;-6.554;2024-02-21T03:39:38;19;19;
40371;PMS5003;28564;53.346;-6.554;2024-02-21T03:42:05;29;29;
40371;PMS5003;28564;53.346;-6.554;2024-02-21T03:44:37;35;35;
40371;PMS5003;28564;53.346;-6.554;2024-02-21T03:47:04;7;7;
40371;PMS5003;28564;53.346;-6.554;2024-02-21T03:49:32;9;9;
40371;PMS5003;28564;53.346;-6.554;2024-02-21T03:51:59;8;8;
40371;PMS5003;28564;53.346;-6.554;2024-02-21T03:54:26;5;5;
40371;PMS5003;28564;53.346;-6.554;2024-02-21T03:56:53;4;4;
40371;PMS5003;28564;53.346;-6.554;2024-02-21T03:59:20;4;4;
40371;PMS5003;28564;53.346;-6.554;2024-02-21T04:01:51;3;3;
40371;PMS5003;28564;53.346;-6.554;2024-02-21T04:04:18;2;2;
40371;PMS5003;28564;53.346;-6.554;2024-02-21T04:06:46;1;1;
40371;PMS5003;28564;53.346;-6.554;2024-02-21T04:09:14;1;1;
40371;PMS5003;28564;53.346;-6.554;2024-02-21T04:11:42;0;0;
40371;PMS5003;28564;53.346;-6.554;2024-02-21T04:14:09;0;0;
40371;PMS5003;28564;53.346;-6.554;2024-02-21T04:16:36;0;0;
40371;PMS5003;28564;53.346;-6.554;2024-02-21T04:19:04;0;0;
40371;PMS5003;28564;53.346;-6.554;2024-02-21T04:21:31;0;0;
40371;PMS5003;28564;53.346;-6.554;2024-02-21T04:23:58;0;0;
40371;PMS5003;28564;53.346;-6.554;2024-02-21T04:26:25;0;0;
40371;PMS5003;28564;53.346;-6.554;2024-02-21T04:28:52;0;0;
40371;PMS5003;28564;53.346;-6.554;2024-02-21T04:31:19;0;0;
40371;PMS5003;28564;53.346;-6.554;2024-02-21T04:33:47;0;0;
40371;PMS5003;28564;53.346;-6.554;2024-02-21T04:36:14;0;0;
40371;PMS5003;28564;53.346;-6.554;2024-02-21T04:38:41;0;0;
40371;PMS5003;28564;53.346;-6.554;2024-02-21T04:41:08;0;0;
40371;PMS5003;28564;53.346;-6.554;2024-02-21T04:43:35;0;0;
40371;PMS5003;28564;53.346;-6.554;2024-02-21T04:46:02;0;0;
40371;PMS5003;28564;53.346;-6.554;2024-02-21T04:48:30;0;0;
40371;PMS5003;28564;53.346;-6.554;2024-02-21T04:50:57;0;0;
40371;PMS5003;28564;53.346;-6.554;2024-02-21T04:53:24;0;0;
40371;PMS5003;28564;53.346;-6.554;2024-02-21T04:55:52;0;0;
40371;PMS5003;28564;53.346;-6.554;2024-02-21T04:58:19;0;0;
40371;PMS5003;28564;53.346;-6.554;2024-02-21T05:00:46;0;0;
40371;PMS5003;28564;53.346;-6.554;2024-02-21T05:03:13;0;0;
40371;PMS5003;28564;53.346;-6.554;2024-02-21T05:05:40;0;0;
40371;PMS5003;28564;53.346;-6.554;2024-02-21T05:08:09;0;0;
40371;PMS5003;28564;53.346;-6.554;2024-02-21T05:10:36;0;0;
40371;PMS5003;28564;53.346;-6.554;2024-02-21T05:13:03;0;0;
40371;PMS5003;28564;53.346;-6.554;2024-02-21T05:15:30;0;0;
40371;PMS5003;28564;53.346;-6.554;2024-02-21T05:17:58;0;0;
40371;PMS5003;28564;53.346;-6.554;2024-02-21T05:20:25;0;0;
40371;PMS5003;28564;53.346;-6.554;2024-02-21T05:22:53;0;0;
40371;PMS5003;28564;53.346;-6.554;2024-02-21T05:25:20;0;0;
40371;PMS5003;28564;53.346;-6.554;2024-02-21T05:27:47;0;0;
40371;PMS5003;28564;53.346;-6.554;2024-02-21T05:30:17;0;0;
40371;PMS5003;28564;53.346;-6.554;2024-02-21T05:32:44;0;0;
40371;PMS5003;28564;53.346;-6.554;2024-02-21T05:35:11;0;0;
40371;PMS5003;28564;53.346;-6.554;2024-02-21T05:37:38;0;0;
40371;PMS5003;28564;53.346;-6.554;2024-02-21T05:40:06;0;0;
40371;PMS5003;28564;53.346;-6.554;2024-02-21T05:42:33;0;0;
40371;PMS5003;28564;53.346;-6.554;2024-02-21T05:45:00;0;0;
40371;PMS5003;28564;53.346;-6.554;2024-02-21T05:47:27;0;0;
40371;PMS5003;28564;53.346;-6.554;2024-02-21T05:49:55;0;0;
40371;PMS5003;28564;53.346;-6.554;2024-02-21T05:52:22;0;0;
40371;PMS5003;28564;53.346;-6.554;2024-02-21T05:54:50;0;0;
40371;PMS5003;28564;53.346;-6.554;2024-02-21T05:57:17;0;0;
40371;PMS5003;28564;53.346;-6.554;2024-02-21T05:59:45;0;0;
40371;PMS5003;28564;53.346;-6.554;2024-02-21T06:02:12;0;0;
40371;PMS5003;28564;53.346;-6.554;2024-02-21T06:04:39;0;0;
40371;PMS5003;28564;53.346;-6.554;2024-02-21T06:07:06;0;0;
40371;PMS5003;28564;53.346;-6.554;2024-02-21T06:09:34;0;0;
40371;PMS5003;28564;53.346;-6.554;2024-02-21T06:12:01;1;0;
40371;PMS5003;28564;53.346;-6.554;2024-02-21T06:14:29;0;0;
40371;PMS5003;28564;53.346;-6.554;2024-02-21T06:16:56;0;0;
40371;PMS5003;28564;53.346;-6.554;2024-02-21T06:19:24;1;0;
40371;PMS5003;28564;53.346;-6.554;2024-02-21T06:21:51;0;0;
40371;PMS5003;28564;53.346;-6.554;2024-02-21T06:24:18;0;0;
40371;PMS5003;28564;53.346;-6.554;2024-02-21T06:26:45;0;0;
40371;PMS5003;28564;53.346;-6.554;2024-02-21T06:29:13;0;0;
40371;PMS5003;28564;53.346;-6.554;2024-02-21T06:31:40;0;0;
40371;PMS5003;28564;53.346;-6.554;2024-02-21T06:34:07;1;0;
40371;PMS5003;28564;53.346;-6.554;2024-02-21T06:36:34;0;0;
40371;PMS5003;28564;53.346;-6.554;2024-02-21T06:39:01;0;0;
40371;PMS5003;28564;53.346;-6.554;2024-02-21T06:41:28;0;0;
40371;PMS5003;28564;53.346;-6.554;2024-02-21T06:43:56;0;0;
40371;PMS5003;28564;53.346;-6.554;2024-02-21T06:46:23;0;0;
40371;PMS5003;28564;53.346;-6.554;2024-02-21T06:48:51;0;0;
40371;PMS5003;28564;53.346;-6.554;2024-02-21T06:51:18;0;0;
40371;PMS5003;28564;53.346;-6.554;2024-02-21T06:53:45;1;0;
40371;PMS5003;28564;53.346;-6.554;2024-02-21T06:56:13;0;0;
40371;PMS5003;28564;53.346;-6.554;2024-02-21T06:58:41;1;1;
40371;PMS5003;28564;53.346;-6.554;2024-02-21T07:01:08;0;0;
40371;PMS5003;28564;53.346;-6.554;2024-02-21T07:03:37;0;0;
40371;PMS5003;28564;53.346;-6.554;2024-02-21T07:06:04;0;0;
40371;PMS5003;28564;53.346;-6.554;2024-02-21T07:08:31;0;0;
40371;PMS5003;28564;53.346;-6.554;2024-02-21T07:10:59;0;0;
40371;PMS5003;28564;53.346;-6.554;2024-02-21T07:13:26;0;0;
40371;PMS5003;28564;53.346;-6.554;2024-02-21T07:15:53;0;0;
40371;PMS5003;28564;53.346;-6.554;2024-02-21T07:18:20;0;0;
40371;PMS5003;28564;53.346;-6.554;2024-02-21T07:20:48;1;0;
40371;PMS5003;28564;53.346;-6.554;2024-02-21T07:23:15;0;0;
40371;PMS5003;28564;53.346;-6.554;2024-02-21T07:25:42;0;0;
40371;PMS5003;28564;53.346;-6.554;2024-02-21T07:28:09;0;0;
40371;PMS5003;28564;53.346;-6.554;2024-02-21T07:30:36;0;0;
40371;PMS5003;28564;53.346;-6.554;2024-02-21T07:33:03;1;0;
40371;PMS5003;28564;53.346;-6.554;2024-02-21T07:35:31;0;0;
40371;PMS5003;28564;53.346;-6.554;2024-02-21T07:37:58;0;0;
40371;PMS5003;28564;53.346;-6.554;2024-02-21T07:40:25;0;0;
40371;PMS5003;28564;53.346;-6.554;2024-02-21T07:42:57;0;0;
40371;PMS5003;28564;53.346;-6.554;2024-02-21T07:45:25;0;0;
40371;PMS5003;28564;53.346;-6.554;2024-02-21T07:47:53;0;0;
40371;PMS5003;28564;53.346;-6.554;2024-02-21T07:50:20;0;0;
40371;PMS5003;28564;53.346;-6.554;2024-02-21T07:52:47;0;0;
40371;PMS5003;28564;53.346;-6.554;2024-02-21T07:55:14;0;0;
40371;PMS5003;28564;53.346;-6.554;2024-02-21T07:57:42;0;0;
40371;PMS5003;28564;53.346;-6.554;2024-02-21T08:00:09;0;0;
40371;PMS5003;28564;53.346;-6.554;2024-02-21T08:02:37;0;0;
40371;PMS5003;28564;53.346;-6.554;2024-02-21T08:05:04;0;0;
40371;PMS5003;28564;53.346;-6.554;2024-02-21T08:07:32;0;0;
40371;PMS5003;28564;53.346;-6.554;2024-02-21T08:09:59;0;0;
40371;PMS5003;28564;53.346;-6.554;2024-02-21T08:12:26;0;0;
40371;PMS5003;28564;53.346;-6.554;2024-02-21T08:14:53;0;0;
40371;PMS5003;28564;53.346;-6.554;2024-02-21T08:17:20;0;0;
40371;PMS5003;28564;53.346;-6.554;2024-02-21T08:19:48;0;0;
40371;PMS5003;28564;53.346;-6.554;2024-02-21T08:22:15;0;0;
40371;PMS5003;28564;53.346;-6.554;2024-02-21T08:24:42;0;0;
40371;PMS5003;28564;53.346;-6.554;2024-02-21T08:27:09;0;0;
40371;PMS5003;28564;53.346;-6.554;2024-02-21T08:29:36;0;0;
40371;PMS5003;28564;53.346;-6.554;2024-02-21T08:32:03;0;0;
40371;PMS5003;28564;53.346;-6.554;2024-02-21T08:34:31;0;0;
40371;PMS5003;28564;53.346;-6.554;2024-02-21T08:36:58;0;0;
40371;PMS5003;28564;53.346;-6.554;2024-02-21T08:39:25;0;0;
40371;PMS5003;28564;53.346;-6.554;2024-02-21T08:41:52;0;0;
40371;PMS5003;28564;53.346;-6.554;2024-02-21T08:44:19;0;0;
40371;PMS5003;28564;53.346;-6.554;2024-02-21T08:46:48;0;0;
40371;PMS5003;28564;53.346;-6.554;2024-02-21T08:49:15;0;0;
40371;PMS5003;28564;53.346;-6.554;2024-02-21T08:51:42;0;0;
40371;PMS5003;28564;53.346;-6.554;2024-02-21T08:54:14;0;0;
40371;PMS5003;28564;53.346;-6.554;2024-02-21T08:56:42;0;0;
40371;PMS5003;28564;53.346;-6.554;2024-02-21T08:59:09;0;0;
40371;PMS5003;28564;53.346;-6.554;2024-02-21T09:01:36;0;0;
40371;PMS5003;28564;53.346;-6.554;2024-02-21T09:04:03;0;0;
40371;PMS5003;28564;53.346;-6.554;2024-02-21T09:06:31;0;0;
40371;PMS5003;28564;53.346;-6.554;2024-02-21T09:08:58;0;0;
40371;PMS5003;28564;53.346;-6.554;2024-02-21T09:11:25;0;0;
40371;PMS5003;28564;53.346;-6.554;2024-02-21T09:13:52;0;0;
40371;PMS5003;28564;53.346;-6.554;2024-02-21T09:16:19;0;0;
40371;PMS5003;28564;53.346;-6.554;2024-02-21T09:18:47;0;0;
40371;PMS5003;28564;53.346;-6.554;2024-02-21T09:21:14;0;0;
40371;PMS5003;28564;53.346;-6.554;2024-02-21T09:23:41;0;0;
40371;PMS5003;28564;53.346;-6.554;2024-02-21T09:26:09;0;0;
40371;PMS5003;28564;53.346;-6.554;2024-02-21T09:28:36;0;0;
40371;PMS5003;28564;53.346;-6.554;2024-02-21T09:31:03;0;0;
40371;PMS5003;28564;53.346;-6.554;2024-02-21T09:33:30;1;0;
40371;PMS5003;28564;53.346;-6.554;2024-02-21T09:35:57;0;0;
40371;PMS5003;28564;53.346;-6.554;2024-02-21T09:38:24;0;0;
40371;PMS5003;28564;53.346;-6.554;2024-02-21T09:40:53;0;0;
40371;PMS5003;28564;53.346;-6.554;2024-02-21T09:43:25;0;0;
40371;PMS5003;28564;53.346;-6.554;2024-02-21T09:45:54;0;0;
40371;PMS5003;28564;53.346;-6.554;2024-02-21T09:48:25;0;0;
40371;PMS5003;28564;53.346;-6.554;2024-02-21T09:51:05;0;0;
40371;PMS5003;28564;53.346;-6.554;2024-02-21T09:53:35;0;0;
40371;PMS5003;28564;53.346;-6.554;2024-02-21T09:56:05;1;0;
40371;PMS5003;28564;53.346;-6.554;2024-02-21T09:58:34;0;0;
40371;PMS5003;28564;53.346;-6.554;2024-02-21T10:03:54;0;0;
40371;PMS5003;28564;53.346;-6.554;2024-02-21T10:06:21;0;0;
40371;PMS5003;28564;53.346;-6.554;2024-02-21T10:08:51;0;0;
40371;PMS5003;28564;53.346;-6.554;2024-02-21T10:11:22;0;0;
40371;PMS5003;28564;53.346;-6.554;2024-02-21T10:13:49;0;0;
40371;PMS5003;28564;53.346;-6.554;2024-02-21T10:16:17;0;0;
40371;PMS5003;28564;53.346;-6.554;2024-02-21T10:18:53;0;0;
40371;PMS5003;28564;53.346;-6.554;2024-02-21T10:21:22;0;0;
40371;PMS5003;28564;53.346;-6.554;2024-02-21T10:23:50;0;0;
40371;PMS5003;28564;53.346;-6.554;2024-02-21T10:26:18;0;0;
40371;PMS5003;28564;53.346;-6.554;2024-02-21T10:28:46;0;0;
40371;PMS5003;28564;53.346;-6.554;2024-02-21T10:31:21;0;0;
40371;PMS5003;28564;53.346;-6.554;2024-02-21T10:33:53;0;0;
40371;PMS5003;28564;53.346;-6.554;2024-02-21T10:36:22;0;0;
40371;PMS5003;28564;53.346;-6.554;2024-02-21T10:38:50;0;0;
40371;PMS5003;28564;53.346;-6.554;2024-02-21T10:41:18;0;0;
40371;PMS5003;28564;53.346;-6.554;2024-02-21T10:43:47;0;0;
40371;PMS5003;28564;53.346;-6.554;2024-02-21T10:46:18;0;0;
40371;PMS5003;28564;53.346;-6.554;2024-02-21T10:48:48;0;0;
40371;PMS5003;28564;53.346;-6.554;2024-02-21T10:51:28;0;0;
40371;PMS5003;28564;53.346;-6.554;2024-02-21T10:54:02;0;0;
40371;PMS5003;28564;53.346;-6.554;2024-02-21T10:56:39;0;0;
40371;PMS5003;28564;53.346;-6.554;2024-02-21T10:59:07;1;0;
40371;PMS5003;28564;53.346;-6.554;2024-02-21T11:01:35;1;0;
40371;PMS5003;28564;53.346;-6.554;2024-02-21T11:04:03;0;0;
40371;PMS5003;28564;53.346;-6.554;2024-02-21T11:06:32;0;0;
40371;PMS5003;28564;53.346;-6.554;2024-02-21T11:09:02;0;0;
40371;PMS5003;28564;53.346;-6.554;2024-02-21T11:11:33;0;0;
40371;PMS5003;28564;53.346;-6.554;2024-02-21T11:14:04;0;0;
40371;PMS5003;28564;53.346;-6.554;2024-02-21T11:16:35;0;0;
40371;PMS5003;28564;53.346;-6.554;2024-02-21T11:19:04;0;0;
40371;PMS5003;28564;53.346;-6.554;2024-02-21T11:21:33;0;0;
40371;PMS5003;28564;53.346;-6.554;2024-02-21T11:24:00;0;0;
40371;PMS5003;28564;53.346;-6.554;2024-02-21T11:26:28;0;0;
40371;PMS5003;28564;53.346;-6.554;2024-02-21T11:28:56;0;0;
40371;PMS5003;28564;53.346;-6.554;2024-02-21T11:31:23;0;0;
40371;PMS5003;28564;53.346;-6.554;2024-02-21T11:33:50;2;0;
40371;PMS5003;28564;53.346;-6.554;2024-02-21T11:36:23;0;0;
40371;PMS5003;28564;53.346;-6.554;2024-02-21T11:38:51;0;0;
40371;PMS5003;28564;53.346;-6.554;2024-02-21T11:41:20;0;0;
40371;PMS5003;28564;53.346;-6.554;2024-02-21T11:43:48;0;0;
40371;PMS5003;28564;53.346;-6.554;2024-02-21T11:46:15;2;0;
40371;PMS5003;28564;53.346;-6.554;2024-02-21T11:48:42;0;0;
40371;PMS5003;28564;53.346;-6.554;2024-02-21T11:51:10;1;0;
40371;PMS5003;28564;53.346;-6.554;2024-02-21T11:53:47;0;0;
40371;PMS5003;28564;53.346;-6.554;2024-02-21T11:56:14;0;0;
40371;PMS5003;28564;53.346;-6.554;2024-02-21T11:58:41;0;0;
40371;PMS5003;28564;53.346;-6.554;2024-02-21T12:01:08;0;0;
40371;PMS5003;28564;53.346;-6.554;2024-02-21T12:03:36;0;0;
40371;PMS5003;28564;53.346;-6.554;2024-02-21T12:06:04;0;0;
40371;PMS5003;28564;53.346;-6.554;2024-02-21T12:08:40;0;0;
40371;PMS5003;28564;53.346;-6.554;2024-02-21T12:11:15;0;0;
40371;PMS5003;28564;53.346;-6.554;2024-02-21T12:13:45;0;0;
40371;PMS5003;28564;53.346;-6.554;2024-02-21T12:16:12;0;0;
40371;PMS5003;28564;53.346;-6.554;2024-02-21T12:18:42;0;0;
40371;PMS5003;28564;53.346;-6.554;2024-02-21T12:21:09;0;0;
40371;PMS5003;28564;53.346;-6.554;2024-02-21T12:23:37;0;0;
40371;PMS5003;28564;53.346;-6.554;2024-02-21T12:26:05;0;0;
40371;PMS5003;28564;53.346;-6.554;2024-02-21T12:28:32;0;0;
40371;PMS5003;28564;53.346;-6.554;2024-02-21T12:30:59;1;0;
40371;PMS5003;28564;53.346;-6.554;2024-02-21T12:33:26;2;0;
40371;PMS5003;28564;53.346;-6.554;2024-02-21T12:35:53;10;10;
40371;PMS5003;28564;53.346;-6.554;2024-02-21T12:38:20;9;9;
40371;PMS5003;28564;53.346;-6.554;2024-02-21T12:40:48;9;9;
40371;PMS5003;28564;53.346;-6.554;2024-02-21T12:43:15;7;4;
40371;PMS5003;28564;53.346;-6.554;2024-02-21T12:45:42;10;10;
40371;PMS5003;28564;53.346;-6.554;2024-02-21T12:48:09;7;6;
40371;PMS5003;28564;53.346;-6.554;2024-02-21T12:50:36;0;0;
40371;PMS5003;28564;53.346;-6.554;2024-02-21T12:53:03;1;0;
40371;PMS5003;28564;53.346;-6.554;2024-02-21T12:55:31;0;0;
40371;PMS5003;28564;53.346;-6.554;2024-02-21T12:58:00;1;0;
40371;PMS5003;28564;53.346;-6.554;2024-02-21T12:58:03;1;0;
40371;PMS5003;28564;53.346;-6.554;2024-02-21T13:00:31;1;0;
40371;PMS5003;28564;53.346;-6.554;2024-02-21T13:02:59;2;1;
40371;PMS5003;28564;53.346;-6.554;2024-02-21T13:05:26;0;0;
40371;PMS5003;28564;53.346;-6.554;2024-02-21T13:07:54;0;0;
40371;PMS5003;28564;53.346;-6.554;2024-02-21T13:10:21;0;0;
40371;PMS5003;28564;53.346;-6.554;2024-02-21T13:12:48;1;0;
40371;PMS5003;28564;53.346;-6.554;2024-02-21T13:15:15;0;0;
40371;PMS5003;28564;53.346;-6.554;2024-02-21T13:17:43;1;0;
40371;PMS5003;28564;53.346;-6.554;2024-02-21T13:20:11;2;1;
40371;PMS5003;28564;53.346;-6.554;2024-02-21T13:22:38;1;0;
40371;PMS5003;28564;53.346;-6.554;2024-02-21T13:25:05;2;0;
40371;PMS5003;28564;53.346;-6.554;2024-02-21T13:27:32;1;1;
40371;PMS5003;28564;53.346;-6.554;2024-02-21T13:30:00;0;0;
40371;PMS5003;28564;53.346;-6.554;2024-02-21T13:32:27;0;0;
40371;PMS5003;28564;53.346;-6.554;2024-02-21T13:34:54;0;0;
40371;PMS5003;28564;53.346;-6.554;2024-02-21T13:37:22;0;0;
40371;PMS5003;28564;53.346;-6.554;2024-02-21T13:39:49;0;0;
40371;PMS5003;28564;53.346;-6.554;2024-02-21T13:42:17;0;0;
40371;PMS5003;28564;53.346;-6.554;2024-02-21T13:44:44;0;0;
40371;PMS5003;28564;53.346;-6.554;2024-02-21T13:47:16;0;0;
40371;PMS5003;28564;53.346;-6.554;2024-02-21T13:49:44;1;0;
40371;PMS5003;28564;53.346;-6.554;2024-02-21T13:52:11;2;1;
40371;PMS5003;28564;53.346;-6.554;2024-02-21T13:54:38;3;2;
40371;PMS5003;28564;53.346;-6.554;2024-02-21T13:57:05;25;24;
40371;PMS5003;28564;53.346;-6.554;2024-02-21T13:59:32;0;0;
40371;PMS5003;28564;53.346;-6.554;2024-02-21T14:01:59;1;1;
40371;PMS5003;28564;53.346;-6.554;2024-02-21T14:04:26;0;0;
40371;PMS5003;28564;53.346;-6.554;2024-02-21T14:06:53;0;0;
40371;PMS5003;28564;53.346;-6.554;2024-02-21T14:09:20;1;1;
40371;PMS5003;28564;53.346;-6.554;2024-02-21T14:11:47;1;1;
40371;PMS5003;28564;53.346;-6.554;2024-02-21T14:14:14;5;4;
40371;PMS5003;28564;53.346;-6.554;2024-02-21T14:16:41;2;1;
40371;PMS5003;28564;53.346;-6.554;2024-02-21T14:19:08;2;0;
40371;PMS5003;28564;53.346;-6.554;2024-02-21T14:21:35;4;1;
40371;PMS5003;28564;53.346;-6.554;2024-02-21T14:24:02;2;1;
40371;PMS5003;28564;53.346;-6.554;2024-02-21T14:26:30;1;1;
40371;PMS5003;28564;53.346;-6.554;2024-02-21T14:28:57;3;3;
40371;PMS5003;28564;53.346;-6.554;2024-02-21T14:31:24;2;1;
40371;PMS5003;28564;53.346;-6.554;2024-02-21T14:33:52;2;1;
40371;PMS5003;28564;53.346;-6.554;2024-02-21T14:36:19;1;1;
40371;PMS5003;28564;53.346;-6.554;2024-02-21T14:38:46;1;1;
40371;PMS5003;28564;53.346;-6.554;2024-02-21T14:41:13;41;41;
40371;PMS5003;28564;53.346;-6.554;2024-02-21T14:43:41;4;0;
40371;PMS5003;28564;53.346;-6.554;2024-02-21T14:46:08;0;0;
40371;PMS5003;28564;53.346;-6.554;2024-02-21T14:48:35;1;1;
40371;PMS5003;28564;53.346;-6.554;2024-02-21T14:51:02;2;1;
40371;PMS5003;28564;53.346;-6.554;2024-02-21T14:53:30;3;1;
40371;PMS5003;28564;53.346;-6.554;2024-02-21T14:55:57;6;6;
40371;PMS5003;28564;53.346;-6.554;2024-02-21T14:58:24;9;6;
40371;PMS5003;28564;53.346;-6.554;2024-02-21T15:00:51;6;6;
40371;PMS5003;28564;53.346;-6.554;2024-02-21T15:03:18;3;1;
40371;PMS5003;28564;53.346;-6.554;2024-02-21T15:05:46;1;1;
40371;PMS5003;28564;53.346;-6.554;2024-02-21T15:08:14;2;0;
40371;PMS5003;28564;53.346;-6.554;2024-02-21T15:10:42;2;1;
40371;PMS5003;28564;53.346;-6.554;2024-02-21T15:13:09;0;0;
40371;PMS5003;28564;53.346;-6.554;2024-02-21T15:15:36;5;4;
40371;PMS5003;28564;53.346;-6.554;2024-02-21T15:18:03;2;0;
40371;PMS5003;28564;53.346;-6.554;2024-02-21T15:20:30;0;0;
40371;PMS5003;28564;53.346;-6.554;2024-02-21T15:22:57;3;1;
40371;PMS5003;28564;53.346;-6.554;2024-02-21T15:25:24;1;0;
40371;PMS5003;28564;53.346;-6.554;2024-02-21T15:27:52;0;0;
40371;PMS5003;28564;53.346;-6.554;2024-02-21T15:30:20;0;0;
40371;PMS5003;28564;53.346;-6.554;2024-02-21T15:32:47;0;0;
40371;PMS5003;28564;53.346;-6.554;2024-02-21T15:35:14;1;1;
40371;PMS5003;28564;53.346;-6.554;2024-02-21T15:37:41;1;0;
40371;PMS5003;28564;53.346;-6.554;2024-02-21T15:40:08;1;1;
40371;PMS5003;28564;53.346;-6.554;2024-02-21T15:42:36;10;10;
40371;PMS5003;28564;53.346;-6.554;2024-02-21T15:45:06;4;2;
40371;PMS5003;28564;53.346;-6.554;2024-02-21T15:47:33;1;1;
40371;PMS5003;28564;53.346;-6.554;2024-02-21T15:50:00;5;1;
40371;PMS5003;28564;53.346;-6.554;2024-02-21T15:52:27;0;0;
40371;PMS5003;28564;53.346;-6.554;2024-02-21T15:54:54;0;0;
40371;PMS5003;28564;53.346;-6.554;2024-02-21T15:57:22;3;1;
40371;PMS5003;28564;53.346;-6.554;2024-02-21T15:59:49;2;0;
40371;PMS5003;28564;53.346;-6.554;2024-02-21T16:02:16;1;1;
40371;PMS5003;28564;53.346;-6.554;2024-02-21T16:04:43;1;0;
40371;PMS5003;28564;53.346;-6.554;2024-02-21T16:07:11;1;1;
40371;PMS5003;28564;53.346;-6.554;2024-02-21T16:09:38;1;0;
40371;PMS5003;28564;53.346;-6.554;2024-02-21T16:12:05;1;1;
40371;PMS5003;28564;53.346;-6.554;2024-02-21T16:14:33;0;0;
40371;PMS5003;28564;53.346;-6.554;2024-02-21T16:17:00;5;4;
40371;PMS5003;28564;53.346;-6.554;2024-02-21T16:19:27;0;0;
40371;PMS5003;28564;53.346;-6.554;2024-02-21T16:21:59;0;0;
40371;PMS5003;28564;53.346;-6.554;2024-02-21T16:24:27;2;0;
40371;PMS5003;28564;53.346;-6.554;2024-02-21T16:26:54;3;1;
40371;PMS5003;28564;53.346;-6.554;2024-02-21T16:29:22;1;1;
40371;PMS5003;28564;53.346;-6.554;2024-02-21T16:31:48;1;1;
40371;PMS5003;28564;53.346;-6.554;2024-02-21T16:34:16;0;0;